sensor_id;sensor_type;location;lat;lon;timestamp;P1;durP1;ratioP1;P2;durP2;ratioP2
36303;SDS011;22335;49.800;8.596;2023-03-14T00:04:59;5.85;;;5.55;;
36303;SDS011;22335;49.800;8.596;2023-03-14T00:11:45;5.43;;;5.07;;
36303;SDS011;22335;49.800;8.596;2023-03-14T00:18:28;5.63;;;5.30;;
36303;SDS011;22335;49.800;8.596;2023-03-14T00:25:12;5.50;;;5.10;;
36303;SDS011;22335;49.800;8.596;2023-03-14T00:31:57;5.22;;;4.93;;
36303;SDS011;22335;49.800;8.596;2023-03-14T00:38:42;5.10;;;4.85;;
36303;SDS011;22335;49.800;8.596;2023-03-14T00:45:27;4.57;;;4.32;;
36303;SDS011;22335;49.800;8.596;2023-03-14T00:52:12;4.93;;;4.55;;
36303;SDS011;22335;49.800;8.596;2023-03-14T00:58:55;4.40;;;4.10;;
36303;SDS011;22335;49.800;8.596;2023-03-14T01:05:40;5.05;;;4.60;;
36303;SDS011;22335;49.800;8.596;2023-03-14T01:12:25;4.97;;;4.68;;
36303;SDS011;22335;49.800;8.596;2023-03-14T01:19:10;5.70;;;5.30;;
36303;SDS011;22335;49.800;8.596;2023-03-14T01:25:53;5.32;;;5.00;;
36303;SDS011;22335;49.800;8.596;2023-03-14T01:32:39;5.32;;;4.93;;
36303;SDS011;22335;49.800;8.596;2023-03-14T01:39:22;4.97;;;4.68;;
36303;SDS011;22335;49.800;8.596;2023-03-14T01:46:16;5.10;;;4.80;;
36303;SDS011;22335;49.800;8.596;2023-03-14T01:53:06;5.50;;;5.10;;
36303;SDS011;22335;49.800;8.596;2023-03-14T01:59:52;5.63;;;5.30;;
36303;SDS011;22335;49.800;8.596;2023-03-14T02:06:43;6.05;;;5.70;;
36303;SDS011;22335;49.800;8.596;2023-03-14T02:13:39;6.60;;;6.05;;
36303;SDS011;22335;49.800;8.596;2023-03-14T02:20:47;6.10;;;5.60;;
36303;SDS011;22335;49.800;8.596;2023-03-14T02:27:39;6.35;;;5.95;;
36303;SDS011;22335;49.800;8.596;2023-03-14T02:34:23;6.00;;;5.50;;
36303;SDS011;22335;49.800;8.596;2023-03-14T02:41:08;5.80;;;5.20;;
36303;SDS011;22335;49.800;8.596;2023-03-14T02:47:59;5.82;;;5.20;;
36303;SDS011;22335;49.800;8.596;2023-03-14T02:54:50;6.22;;;4.65;;
36303;SDS011;22335;49.800;8.596;2023-03-14T03:01:34;5.53;;;5.00;;
36303;SDS011;22335;49.800;8.596;2023-03-14T03:08:19;5.40;;;4.90;;
36303;SDS011;22335;49.800;8.596;2023-03-14T03:15:05;5.47;;;4.95;;
36303;SDS011;22335;49.800;8.596;2023-03-14T03:21:51;4.85;;;4.45;;
36303;SDS011;22335;49.800;8.596;2023-03-14T03:28:36;6.05;;;5.03;;
36303;SDS011;22335;49.800;8.596;2023-03-14T03:35:20;6.03;;;5.45;;
36303;SDS011;22335;49.800;8.596;2023-03-14T03:42:04;5.72;;;5.22;;
36303;SDS011;22335;49.800;8.596;2023-03-14T04:03:51;8.82;;;5.07;;
36303;SDS011;22335;49.800;8.596;2023-03-14T04:10:36;5.10;;;4.22;;
36303;SDS011;22335;49.800;8.596;2023-03-14T04:17:26;5.20;;;4.50;;
36303;SDS011;22335;49.800;8.596;2023-03-14T04:24:10;5.70;;;4.65;;
36303;SDS011;22335;49.800;8.596;2023-03-14T04:37:41;5.10;;;4.65;;
36303;SDS011;22335;49.800;8.596;2023-03-14T04:44:27;5.20;;;4.80;;
36303;SDS011;22335;49.800;8.596;2023-03-14T04:51:11;4.78;;;4.45;;
36303;SDS011;22335;49.800;8.596;2023-03-14T04:57:55;4.30;;;3.90;;
36303;SDS011;22335;49.800;8.596;2023-03-14T05:04:40;4.25;;;3.80;;
36303;SDS011;22335;49.800;8.596;2023-03-14T05:11:36;4.72;;;3.60;;
36303;SDS011;22335;49.800;8.596;2023-03-14T05:18:38;4.10;;;3.58;;
36303;SDS011;22335;49.800;8.596;2023-03-14T05:25:44;5.10;;;4.60;;
36303;SDS011;22335;49.800;8.596;2023-03-14T05:32:45;4.18;;;3.88;;
36303;SDS011;22335;49.800;8.596;2023-03-14T05:39:47;6.30;;;4.80;;
36303;SDS011;22335;49.800;8.596;2023-03-14T05:46:55;5.40;;;5.00;;
36303;SDS011;22335;49.800;8.596;2023-03-14T05:53:53;5.93;;;5.15;;
36303;SDS011;22335;49.800;8.596;2023-03-14T06:00:55;5.63;;;4.60;;
36303;SDS011;22335;49.800;8.596;2023-03-14T06:08:08;4.95;;;3.03;;
36303;SDS011;22335;49.800;8.596;2023-03-14T06:14:52;2.72;;;2.53;;
36303;SDS011;22335;49.800;8.596;2023-03-14T06:21:35;4.40;;;2.92;;
36303;SDS011;22335;49.800;8.596;2023-03-14T06:28:20;3.10;;;2.80;;
36303;SDS011;22335;49.800;8.596;2023-03-14T06:35:06;5.38;;;2.92;;
36303;SDS011;22335;49.800;8.596;2023-03-14T06:41:54;5.18;;;2.90;;
36303;SDS011;22335;49.800;8.596;2023-03-14T06:48:39;5.28;;;4.95;;
36303;SDS011;22335;49.800;8.596;2023-03-14T06:55:22;5.65;;;4.60;;
36303;SDS011;22335;49.800;8.596;2023-03-14T07:02:08;4.90;;;4.40;;
36303;SDS011;22335;49.800;8.596;2023-03-14T07:08:56;5.00;;;4.50;;
36303;SDS011;22335;49.800;8.596;2023-03-14T07:15:42;4.40;;;4.00;;
36303;SDS011;22335;49.800;8.596;2023-03-14T07:22:27;5.95;;;4.30;;
36303;SDS011;22335;49.800;8.596;2023-03-14T07:29:13;4.10;;;3.80;;
36303;SDS011;22335;49.800;8.596;2023-03-14T07:35:56;4.03;;;3.72;;
36303;SDS011;22335;49.800;8.596;2023-03-14T07:42:41;4.93;;;4.00;;
36303;SDS011;22335;49.800;8.596;2023-03-14T07:49:31;4.72;;;4.07;;
36303;SDS011;22335;49.800;8.596;2023-03-14T07:56:14;4.30;;;4.00;;
36303;SDS011;22335;49.800;8.596;2023-03-14T08:02:58;4.75;;;4.40;;
36303;SDS011;22335;49.800;8.596;2023-03-14T08:09:43;4.60;;;4.20;;
36303;SDS011;22335;49.800;8.596;2023-03-14T08:16:26;4.70;;;4.40;;
36303;SDS011;22335;49.800;8.596;2023-03-14T08:23:10;3.90;;;3.70;;
36303;SDS011;22335;49.800;8.596;2023-03-14T08:29:54;3.90;;;3.70;;
36303;SDS011;22335;49.800;8.596;2023-03-14T08:36:38;4.30;;;3.90;;
36303;SDS011;22335;49.800;8.596;2023-03-14T08:43:21;4.07;;;3.88;;
36303;SDS011;22335;49.800;8.596;2023-03-14T08:50:07;4.18;;;4.07;;
36303;SDS011;22335;49.800;8.596;2023-03-14T08:56:56;4.18;;;3.95;;
36303;SDS011;22335;49.800;8.596;2023-03-14T09:03:39;3.80;;;3.60;;
36303;SDS011;22335;49.800;8.596;2023-03-14T09:10:24;3.67;;;3.47;;
36303;SDS011;22335;49.800;8.596;2023-03-14T09:17:08;4.07;;;3.72;;
36303;SDS011;22335;49.800;8.596;2023-03-14T09:23:51;4.18;;;3.90;;
36303;SDS011;22335;49.800;8.596;2023-03-14T09:30:36;4.00;;;3.70;;
36303;SDS011;22335;49.800;8.596;2023-03-14T09:37:19;3.42;;;3.33;;
36303;SDS011;22335;49.800;8.596;2023-03-14T09:44:04;4.03;;;3.83;;
36303;SDS011;22335;49.800;8.596;2023-03-14T09:50:55;3.60;;;3.40;;
36303;SDS011;22335;49.800;8.596;2023-03-14T09:57:41;3.70;;;3.50;;
36303;SDS011;22335;49.800;8.596;2023-03-14T10:04:27;4.32;;;4.13;;
36303;SDS011;22335;49.800;8.596;2023-03-14T10:17:59;3.70;;;3.40;;
36303;SDS011;22335;49.800;8.596;2023-03-14T10:24:45;4.13;;;3.83;;
36303;SDS011;22335;49.800;8.596;2023-03-14T10:31:46;3.60;;;3.50;;
36303;SDS011;22335;49.800;8.596;2023-03-14T10:38:35;3.90;;;3.60;;
36303;SDS011;22335;49.800;8.596;2023-03-14T10:45:27;4.20;;;4.00;;
36303;SDS011;22335;49.800;8.596;2023-03-14T10:52:20;3.70;;;3.60;;
36303;SDS011;22335;49.800;8.596;2023-03-14T10:59:11;4.40;;;4.20;;
36303;SDS011;22335;49.800;8.596;2023-03-14T11:05:57;3.92;;;3.80;;
36303;SDS011;22335;49.800;8.596;2023-03-14T11:12:52;4.15;;;3.85;;
36303;SDS011;22335;49.800;8.596;2023-03-14T11:19:53;4.20;;;4.00;;
36303;SDS011;22335;49.800;8.596;2023-03-14T11:27:00;4.70;;;4.50;;
36303;SDS011;22335;49.800;8.596;2023-03-14T11:33:56;4.45;;;4.20;;
36303;SDS011;22335;49.800;8.596;2023-03-14T11:40:47;4.40;;;4.20;;
36303;SDS011;22335;49.800;8.596;2023-03-14T11:47:34;4.40;;;4.20;;
36303;SDS011;22335;49.800;8.596;2023-03-14T11:54:26;4.97;;;4.78;;
36303;SDS011;22335;49.800;8.596;2023-03-14T12:01:18;4.80;;;4.60;;
36303;SDS011;22335;49.800;8.596;2023-03-14T12:08:32;4.55;;;4.35;;
36303;SDS011;22335;49.800;8.596;2023-03-14T12:15:31;4.80;;;4.60;;
36303;SDS011;22335;49.800;8.596;2023-03-14T12:22:21;4.57;;;4.38;;
36303;SDS011;22335;49.800;8.596;2023-03-14T12:29:11;4.20;;;4.10;;
36303;SDS011;22335;49.800;8.596;2023-03-14T12:36:01;4.30;;;4.20;;
36303;SDS011;22335;49.800;8.596;2023-03-14T12:43:30;5.00;;;4.80;;
36303;SDS011;22335;49.800;8.596;2023-03-14T12:50:18;4.70;;;4.50;;
36303;SDS011;22335;49.800;8.596;2023-03-14T12:57:11;5.10;;;4.90;;
36303;SDS011;22335;49.800;8.596;2023-03-14T13:04:08;5.00;;;4.80;;
36303;SDS011;22335;49.800;8.596;2023-03-14T13:17:39;4.60;;;4.50;;
36303;SDS011;22335;49.800;8.596;2023-03-14T13:24:24;5.07;;;4.77;;
36303;SDS011;22335;49.800;8.596;2023-03-14T13:31:22;4.70;;;4.40;;
36303;SDS011;22335;49.800;8.596;2023-03-14T13:38:15;3.42;;;3.22;;
36303;SDS011;22335;49.800;8.596;2023-03-14T13:51:49;6.45;;;3.70;;
36303;SDS011;22335;49.800;8.596;2023-03-14T13:58:35;3.50;;;3.30;;
36303;SDS011;22335;49.800;8.596;2023-03-14T14:05:22;3.60;;;3.40;;
36303;SDS011;22335;49.800;8.596;2023-03-14T14:12:10;3.90;;;3.70;;
36303;SDS011;22335;49.800;8.596;2023-03-14T14:18:59;4.10;;;3.90;;
36303;SDS011;22335;49.800;8.596;2023-03-14T14:25:43;4.72;;;4.40;;
36303;SDS011;22335;49.800;8.596;2023-03-14T14:32:34;5.30;;;5.00;;
36303;SDS011;22335;49.800;8.596;2023-03-14T14:39:21;5.30;;;5.00;;
36303;SDS011;22335;49.800;8.596;2023-03-14T14:46:07;5.00;;;4.70;;
36303;SDS011;22335;49.800;8.596;2023-03-14T14:52:55;4.95;;;4.65;;
36303;SDS011;22335;49.800;8.596;2023-03-14T14:59:42;5.38;;;4.97;;
36303;SDS011;22335;49.800;8.596;2023-03-14T15:06:27;4.80;;;4.50;;
36303;SDS011;22335;49.800;8.596;2023-03-14T15:13:13;4.60;;;4.40;;
36303;SDS011;22335;49.800;8.596;2023-03-14T15:19:57;4.25;;;3.95;;
36303;SDS011;22335;49.800;8.596;2023-03-14T15:26:41;3.70;;;3.50;;
36303;SDS011;22335;49.800;8.596;2023-03-14T15:33:26;4.28;;;3.97;;
36303;SDS011;22335;49.800;8.596;2023-03-14T15:40:12;3.70;;;3.50;;
36303;SDS011;22335;49.800;8.596;2023-03-14T15:46:56;3.42;;;3.00;;
36303;SDS011;22335;49.800;8.596;2023-03-14T15:53:40;3.25;;;3.05;;
36303;SDS011;22335;49.800;8.596;2023-03-14T16:00:26;4.00;;;3.70;;
36303;SDS011;22335;49.800;8.596;2023-03-14T16:07:10;4.00;;;3.80;;
36303;SDS011;22335;49.800;8.596;2023-03-14T16:13:53;4.00;;;3.80;;
36303;SDS011;22335;49.800;8.596;2023-03-14T16:20:38;4.40;;;4.10;;
36303;SDS011;22335;49.800;8.596;2023-03-14T16:27:28;4.10;;;3.80;;
36303;SDS011;22335;49.800;8.596;2023-03-14T16:34:12;5.07;;;4.60;;
36303;SDS011;22335;49.800;8.596;2023-03-14T16:40:58;5.03;;;4.63;;
36303;SDS011;22335;49.800;8.596;2023-03-14T16:47:43;6.57;;;4.47;;
36303;SDS011;22335;49.800;8.596;2023-03-14T16:54:27;4.38;;;4.00;;
36303;SDS011;22335;49.800;8.596;2023-03-14T17:01:13;5.03;;;4.53;;
36303;SDS011;22335;49.800;8.596;2023-03-14T17:07:59;5.60;;;5.10;;
36303;SDS011;22335;49.800;8.596;2023-03-14T17:14:42;5.30;;;4.80;;
36303;SDS011;22335;49.800;8.596;2023-03-14T17:21:27;5.18;;;4.78;;
36303;SDS011;22335;49.800;8.596;2023-03-14T17:28:10;7.10;;;6.45;;
36303;SDS011;22335;49.800;8.596;2023-03-14T17:34:54;26.10;;;16.38;;
36303;SDS011;22335;49.800;8.596;2023-03-14T17:41:39;19.27;;;13.07;;
36303;SDS011;22335;49.800;8.596;2023-03-14T17:48:22;11.70;;;10.60;;
36303;SDS011;22335;49.800;8.596;2023-03-14T17:55:06;9.05;;;8.35;;
36303;SDS011;22335;49.800;8.596;2023-03-14T18:01:53;7.87;;;7.20;;
36303;SDS011;22335;49.800;8.596;2023-03-14T18:08:37;8.95;;;8.25;;
36303;SDS011;22335;49.800;8.596;2023-03-14T18:15:24;9.90;;;9.23;;
36303;SDS011;22335;49.800;8.596;2023-03-14T18:22:08;6.68;;;6.28;;
36303;SDS011;22335;49.800;8.596;2023-03-14T18:28:53;6.03;;;5.60;;
36303;SDS011;22335;49.800;8.596;2023-03-14T18:35:37;6.00;;;5.70;;
36303;SDS011;22335;49.800;8.596;2023-03-14T18:42:22;5.78;;;5.47;;
36303;SDS011;22335;49.800;8.596;2023-03-14T18:49:05;5.72;;;5.50;;
36303;SDS011;22335;49.800;8.596;2023-03-14T18:55:51;6.65;;;6.15;;
36303;SDS011;22335;49.800;8.596;2023-03-14T19:02:37;7.55;;;6.88;;
36303;SDS011;22335;49.800;8.596;2023-03-14T19:09:21;12.05;;;6.72;;
36303;SDS011;22335;49.800;8.596;2023-03-14T19:16:05;8.35;;;7.53;;
36303;SDS011;22335;49.800;8.596;2023-03-14T19:22:51;8.35;;;7.57;;
36303;SDS011;22335;49.800;8.596;2023-03-14T19:29:38;11.60;;;8.02;;
36303;SDS011;22335;49.800;8.596;2023-03-14T19:36:23;10.88;;;7.57;;
36303;SDS011;22335;49.800;8.596;2023-03-14T19:43:10;8.97;;;8.07;;
36303;SDS011;22335;49.800;8.596;2023-03-14T19:49:54;12.15;;;9.55;;
36303;SDS011;22335;49.800;8.596;2023-03-14T19:56:38;15.43;;;11.90;;
36303;SDS011;22335;49.800;8.596;2023-03-14T20:03:23;9.20;;;8.30;;
36303;SDS011;22335;49.800;8.596;2023-03-14T20:10:07;8.85;;;7.82;;
36303;SDS011;22335;49.800;8.596;2023-03-14T20:16:52;9.02;;;7.60;;
36303;SDS011;22335;49.800;8.596;2023-03-14T20:23:37;8.10;;;7.07;;
36303;SDS011;22335;49.800;8.596;2023-03-14T20:30:21;9.90;;;8.10;;
36303;SDS011;22335;49.800;8.596;2023-03-14T20:37:05;8.20;;;6.70;;
36303;SDS011;22335;49.800;8.596;2023-03-14T20:43:50;8.82;;;7.18;;
36303;SDS011;22335;49.800;8.596;2023-03-14T20:50:34;8.80;;;6.18;;
36303;SDS011;22335;49.800;8.596;2023-03-14T20:57:17;7.55;;;6.88;;
36303;SDS011;22335;49.800;8.596;2023-03-14T21:04:03;8.15;;;6.45;;
36303;SDS011;22335;49.800;8.596;2023-03-14T21:10:46;6.82;;;6.22;;
36303;SDS011;22335;49.800;8.596;2023-03-14T21:17:30;8.57;;;6.85;;
36303;SDS011;22335;49.800;8.596;2023-03-14T21:24:15;9.60;;;6.90;;
36303;SDS011;22335;49.800;8.596;2023-03-14T21:31:02;8.98;;;6.93;;
36303;SDS011;22335;49.800;8.596;2023-03-14T21:37:47;7.05;;;6.38;;
36303;SDS011;22335;49.800;8.596;2023-03-14T21:44:32;6.60;;;5.80;;
36303;SDS011;22335;49.800;8.596;2023-03-14T21:51:17;5.95;;;5.38;;
36303;SDS011;22335;49.800;8.596;2023-03-14T21:58:01;6.97;;;5.40;;
36303;SDS011;22335;49.800;8.596;2023-03-14T22:04:45;5.22;;;4.85;;
36303;SDS011;22335;49.800;8.596;2023-03-14T22:11:29;5.82;;;5.32;;
36303;SDS011;22335;49.800;8.596;2023-03-14T22:18:12;5.13;;;4.72;;
36303;SDS011;22335;49.800;8.596;2023-03-14T22:24:58;5.70;;;4.85;;
36303;SDS011;22335;49.800;8.596;2023-03-14T22:31:42;5.60;;;4.32;;
36303;SDS011;22335;49.800;8.596;2023-03-14T22:38:25;5.00;;;4.60;;
36303;SDS011;22335;49.800;8.596;2023-03-14T22:45:10;5.72;;;4.72;;
36303;SDS011;22335;49.800;8.596;2023-03-14T22:51:54;6.47;;;4.55;;
36303;SDS011;22335;49.800;8.596;2023-03-14T22:58:37;9.18;;;5.10;;
36303;SDS011;22335;49.800;8.596;2023-03-14T23:05:22;5.22;;;4.40;;
36303;SDS011;22335;49.800;8.596;2023-03-14T23:12:06;7.18;;;4.70;;
36303;SDS011;22335;49.800;8.596;2023-03-14T23:18:50;10.80;;;7.40;;
36303;SDS011;22335;49.800;8.596;2023-03-14T23:25:35;9.85;;;6.93;;
36303;SDS011;22335;49.800;8.596;2023-03-14T23:32:32;7.35;;;4.85;;
36303;SDS011;22335;49.800;8.596;2023-03-14T23:39:16;7.85;;;4.47;;
36303;SDS011;22335;49.800;8.596;2023-03-14T23:46:00;6.68;;;6.07;;
36303;SDS011;22335;49.800;8.596;2023-03-14T23:52:46;9.60;;;7.30;;
36303;SDS011;22335;49.800;8.596;2023-03-14T23:59:29;7.32;;;6.63;;
